createdAt,value
2019-02-16T00:02:16.367Z,100.00
2019-02-16T00:04:45.928Z,100.00
2019-02-16T00:07:15.605Z,100.00
2019-02-16T00:09:45.415Z,100.00
2019-02-16T00:12:15.150Z,100.00
2019-02-16T00:14:44.760Z,100.00
2019-02-16T00:17:14.394Z,100.00
2019-02-16T00:19:44.005Z,100.00
2019-02-16T00:22:13.760Z,100.00
2019-02-16T00:24:43.312Z,100.00
2019-02-16T00:27:12.980Z,100.00
2019-02-16T00:29:42.757Z,100.00
2019-02-16T00:32:12.488Z,100.00
2019-02-16T00:34:42.196Z,100.00
2019-02-16T00:37:11.822Z,100.00
2019-02-16T00:39:41.479Z,100.00
2019-02-16T00:42:11.127Z,100.00
2019-02-16T00:44:40.844Z,100.00
2019-02-16T00:47:10.408Z,100.00
2019-02-16T00:49:40.162Z,100.00
2019-02-16T00:52:10.012Z,100.00
2019-02-16T00:54:39.665Z,100.00
2019-02-16T00:57:09.328Z,100.00
2019-02-16T00:59:38.993Z,100.00
2019-02-16T01:02:08.638Z,100.00
2019-02-16T01:04:39.209Z,100.00
2019-02-16T01:07:09.183Z,100.00
2019-02-16T01:09:38.802Z,100.00
2019-02-16T01:12:08.391Z,100.00
2019-02-16T01:14:38.067Z,100.00
2019-02-16T01:17:07.710Z,100.00
2019-02-16T01:19:37.388Z,100.00
2019-02-16T01:22:06.910Z,100.00
2019-02-16T01:24:36.432Z,100.00
2019-02-16T01:27:05.980Z,100.00
2019-02-16T01:29:35.728Z,100.00
2019-02-16T01:32:05.401Z,100.00
2019-02-16T01:34:35.135Z,100.00
2019-02-16T01:37:04.886Z,100.00
2019-02-16T01:39:34.535Z,100.00
2019-02-16T01:42:04.172Z,100.00
2019-02-16T01:44:33.789Z,100.00
2019-02-16T01:47:03.480Z,100.00
2019-02-16T01:49:33.119Z,100.00
2019-02-16T01:52:02.651Z,100.00
2019-02-16T01:54:32.216Z,100.00
2019-02-16T01:57:01.780Z,100.00
2019-02-16T01:59:31.458Z,100.00
2019-02-16T02:02:01.137Z,100.00
2019-02-16T02:04:30.684Z,100.00
2019-02-16T02:07:00.341Z,100.00
2019-02-16T02:09:30.091Z,100.00
2019-02-16T02:11:59.771Z,100.00
2019-02-16T02:14:29.486Z,100.00
2019-02-16T02:16:59.194Z,100.00
2019-02-16T02:19:28.830Z,100.00
2019-02-16T02:21:58.395Z,100.00
2019-02-16T02:24:28.047Z,100.00
2019-02-16T02:26:57.818Z,100.00
2019-02-16T02:29:27.374Z,100.00
2019-02-16T02:31:56.996Z,100.00
2019-02-16T02:34:26.547Z,100.00
2019-02-16T02:36:56.083Z,100.00
2019-02-16T02:39:25.635Z,100.00
2019-02-16T02:41:55.165Z,100.00
2019-02-16T02:44:24.701Z,100.00
2019-02-16T02:46:54.241Z,100.00
2019-02-16T02:49:23.798Z,100.00
2019-02-16T02:51:53.494Z,100.00
2019-02-16T02:54:23.243Z,100.00
2019-02-16T02:56:53.002Z,100.00
2019-02-16T02:59:22.694Z,100.00
2019-02-16T03:01:52.284Z,100.00
2019-02-16T03:04:21.888Z,100.00
2019-02-16T03:06:51.562Z,100.00
2019-02-16T03:09:21.149Z,100.00
2019-02-16T03:11:50.770Z,100.00
2019-02-16T03:14:20.567Z,100.00
2019-02-16T03:16:50.132Z,100.00
2019-02-16T03:19:19.679Z,100.00
2019-02-16T03:21:49.232Z,100.00
2019-02-16T03:24:18.906Z,100.00
2019-02-16T03:27:15.367Z,100.00
2019-02-16T03:30:33.391Z,100.00
2019-02-16T03:33:32.899Z,100.00
2019-02-16T03:36:48.200Z,100.00
2019-02-16T03:39:29.900Z,100.00
2019-02-16T03:41:59.471Z,100.00
2019-02-16T03:44:29.004Z,100.00
2019-02-16T03:46:58.623Z,100.00
2019-02-16T03:49:28.173Z,100.00
2019-02-16T03:51:57.802Z,100.00
2019-02-16T03:54:27.342Z,100.00
2019-02-16T03:56:56.931Z,100.00
2019-02-16T03:59:26.563Z,100.00
2019-02-16T04:01:56.121Z,100.00
2019-02-16T04:04:25.675Z,100.00
2019-02-16T04:06:55.224Z,100.00
2019-02-16T04:09:24.852Z,100.00
2019-02-16T04:11:54.408Z,100.00
2019-02-16T04:14:23.981Z,100.00
2019-02-16T04:16:53.759Z,100.00
2019-02-16T04:19:23.392Z,100.00
2019-02-16T04:21:53.089Z,100.00
2019-02-16T04:24:22.787Z,100.00
2019-02-16T04:26:52.500Z,100.00
2019-02-16T04:29:22.144Z,100.00
2019-02-16T04:31:51.826Z,100.00
2019-02-16T04:34:21.393Z,100.00
2019-02-16T04:36:50.937Z,100.00
2019-02-16T04:39:20.669Z,100.00
2019-02-16T04:41:50.255Z,100.00
2019-02-16T04:44:19.871Z,100.00
2019-02-16T04:46:49.671Z,100.00
2019-02-16T04:49:19.311Z,100.00
2019-02-16T04:51:49.004Z,100.00
2019-02-16T04:54:18.703Z,100.00
2019-02-16T04:56:48.375Z,100.00
2019-02-16T04:59:18.019Z,100.00
2019-02-16T05:01:47.754Z,100.00
2019-02-16T05:04:17.546Z,100.00
2019-02-16T05:06:47.102Z,100.00
2019-02-16T05:09:16.766Z,100.00
2019-02-16T05:11:46.362Z,100.00
2019-02-16T05:14:16.089Z,100.00
2019-02-16T05:16:45.785Z,100.00
2019-02-16T05:19:15.391Z,100.00
2019-02-16T05:21:45.001Z,100.00
2019-02-16T05:24:14.553Z,100.00
2019-02-16T05:26:44.250Z,100.00
2019-02-16T05:29:13.934Z,100.00
2019-02-16T05:31:43.565Z,100.00
2019-02-16T05:34:13.201Z,100.00
2019-02-16T05:36:42.787Z,100.00
2019-02-16T05:39:12.347Z,100.00
2019-02-16T05:41:42.092Z,100.00
2019-02-16T05:44:11.667Z,100.00
2019-02-16T05:46:41.282Z,100.00
2019-02-16T05:49:10.830Z,100.00
2019-02-16T05:51:40.373Z,100.00
2019-02-16T05:54:10.107Z,100.00
2019-02-16T05:56:39.815Z,100.00
2019-02-16T05:59:09.367Z,100.00
2019-02-16T06:01:39.029Z,100.00
2019-02-16T06:04:08.767Z,100.00
2019-02-16T06:06:38.311Z,100.00
2019-02-16T06:09:07.923Z,100.00
2019-02-16T06:11:37.657Z,100.00
2019-02-16T06:14:07.398Z,100.00
2019-02-16T06:16:37.186Z,100.00
2019-02-16T06:19:07.025Z,100.00
2019-02-16T06:21:36.587Z,100.00
2019-02-16T06:24:06.202Z,100.00
2019-02-16T06:26:35.962Z,100.00
2019-02-16T06:29:05.598Z,100.00
2019-02-16T06:31:35.188Z,100.00
2019-02-16T06:34:04.850Z,100.00
2019-02-16T06:36:39.811Z,100.00
2019-02-16T06:39:09.398Z,100.00
2019-02-16T06:41:38.993Z,98.62
2019-02-16T06:44:08.645Z,99.38
2019-02-16T06:46:38.203Z,99.33
2019-02-16T06:49:07.817Z,98.54
2019-02-16T06:51:37.429Z,97.86
2019-02-16T06:54:06.974Z,96.37
2019-02-16T06:56:55.511Z,96.09
2019-02-16T06:59:25.182Z,95.74
2019-02-16T07:01:54.795Z,94.61
2019-02-16T07:04:24.463Z,93.36
2019-02-16T07:06:54.120Z,92.32
2019-02-16T07:09:23.687Z,92.37
2019-02-16T07:11:53.330Z,91.37
2019-02-16T07:14:23.070Z,90.79
2019-02-16T07:17:11.566Z,90.09
2019-02-16T07:19:50.445Z,88.81
2019-02-16T07:22:20.088Z,87.62
2019-02-16T07:24:49.760Z,88.57
2019-02-16T07:27:19.480Z,87.98
2019-02-16T07:29:49.726Z,86.56
2019-02-16T07:32:19.370Z,87.50
2019-02-16T07:34:49.107Z,87.18
2019-02-16T07:37:18.794Z,87.46
2019-02-16T07:39:48.330Z,87.14
2019-02-16T07:42:18.386Z,85.44
2019-02-16T07:44:56.073Z,84.00
2019-02-16T07:47:43.350Z,82.83
2019-02-16T07:50:20.710Z,84.14
2019-02-16T07:52:59.484Z,83.83
2019-02-16T07:55:56.931Z,82.92
2019-02-16T07:58:48.279Z,82.97
2019-02-16T08:01:42.658Z,82.01
2019-02-16T08:04:37.071Z,80.97
2019-02-16T08:07:29.453Z,81.96
2019-02-16T08:10:16.652Z,81.43
2019-02-16T08:12:59.064Z,81.28
2019-02-16T08:15:52.641Z,82.04
2019-02-16T08:18:32.213Z,79.69
2019-02-16T08:21:26.876Z,80.24
2019-02-16T08:24:24.373Z,80.74
2019-02-16T08:27:15.812Z,80.75
2019-02-16T08:30:13.040Z,79.77
2019-02-16T08:33:00.305Z,80.02
2019-02-16T08:35:43.978Z,79.41
2019-02-16T08:38:31.423Z,77.88
2019-02-16T08:41:34.991Z,75.85
2019-02-16T08:44:35.519Z,76.27
2019-02-16T08:47:22.774Z,76.94
2019-02-16T08:50:09.682Z,76.22
2019-02-16T08:52:56.601Z,77.54
2019-02-16T08:55:35.387Z,75.72
2019-02-16T08:58:20.537Z,75.16
2019-02-16T09:01:07.680Z,74.99
2019-02-16T09:03:53.320Z,75.14
2019-02-16T09:06:44.547Z,74.44
2019-02-16T09:09:35.607Z,76.53
2019-02-16T09:12:20.782Z,77.46
2019-02-16T09:15:06.207Z,74.14
2019-02-16T09:17:48.741Z,74.64
2019-02-16T09:20:43.201Z,74.98
2019-02-16T09:23:40.815Z,75.21
2019-02-16T09:26:44.584Z,72.10
2019-02-16T09:29:45.130Z,73.21
2019-02-16T09:32:32.313Z,71.38
2019-02-16T09:35:19.645Z,71.50
2019-02-16T09:38:02.524Z,69.44
2019-02-16T09:40:38.725Z,68.19
2019-02-16T09:43:20.827Z,67.21
2019-02-16T09:45:59.236Z,65.70
2019-02-16T09:48:33.871Z,63.07
2019-02-16T09:51:25.252Z,66.56
2019-02-16T09:54:08.866Z,64.41
2019-02-16T09:56:52.052Z,63.89
2019-02-16T09:59:34.522Z,66.68
2019-02-16T10:02:21.359Z,64.04
2019-02-16T10:05:21.593Z,64.49
2019-02-16T10:08:12.876Z,63.31
2019-02-16T10:11:01.364Z,66.16
2019-02-16T10:13:52.758Z,63.60
2019-02-16T10:16:32.479Z,62.82
2019-02-16T10:19:14.127Z,61.23
2019-02-16T10:22:17.888Z,62.18
2019-02-16T10:25:05.015Z,61.58
2019-02-16T10:27:59.435Z,61.44
2019-02-16T10:30:38.668Z,62.53
2019-02-16T10:33:27.202Z,63.31
2019-02-16T10:36:18.494Z,61.98
2019-02-16T10:39:05.913Z,61.15
2019-02-16T10:41:44.231Z,59.00
2019-02-16T10:44:51.013Z,58.96
2019-02-16T10:47:37.398Z,59.23
2019-02-16T10:50:20.137Z,60.83
2019-02-16T10:53:02.635Z,62.75
2019-02-16T10:55:56.831Z,64.68
2019-02-16T10:58:45.178Z,64.44
2019-02-16T11:01:24.207Z,64.90
2019-02-16T11:03:58.104Z,66.95
2019-02-16T11:06:38.504Z,64.96
2019-02-16T11:09:36.605Z,64.48
2019-02-16T11:12:20.477Z,64.75
2019-02-16T11:15:08.898Z,63.55
2019-02-16T11:18:06.179Z,63.61
2019-02-16T11:20:54.551Z,62.33
2019-02-16T11:23:36.927Z,59.36
2019-02-16T11:26:23.897Z,58.26
2019-02-16T11:29:11.293Z,57.27
2019-02-16T11:32:02.459Z,58.38
2019-02-16T11:35:05.140Z,58.34
2019-02-16T11:37:56.280Z,60.08
2019-02-16T11:40:38.599Z,61.15
2019-02-16T11:43:23.952Z,60.46
2019-02-16T11:45:59.947Z,58.83
2019-02-16T11:48:51.353Z,59.19
2019-02-16T11:51:40.096Z,58.88
2019-02-16T11:54:29.341Z,58.28
2019-02-16T11:57:17.400Z,55.75
2019-02-16T12:00:02.571Z,50.78
2019-02-16T12:02:57.088Z,50.98
2019-02-16T12:05:32.860Z,50.35
2019-02-16T12:08:09.289Z,52.05
2019-02-16T12:10:46.425Z,52.59
2019-02-16T12:13:33.403Z,52.25
2019-02-16T12:16:20.319Z,52.55
2019-02-16T12:19:12.573Z,52.41
2019-02-16T12:22:06.748Z,53.12
2019-02-16T12:24:42.688Z,53.97
2019-02-16T12:27:30.328Z,58.58
2019-02-16T12:30:17.319Z,57.35
2019-02-16T12:33:11.200Z,56.05
2019-02-16T12:36:18.079Z,57.93
2019-02-16T12:39:09.072Z,58.91
2019-02-16T12:41:55.971Z,59.32
2019-02-16T12:44:42.958Z,59.26
2019-02-16T12:47:23.165Z,61.40
2019-02-16T12:49:59.845Z,60.29
2019-02-16T12:52:48.107Z,59.03
2019-02-16T12:55:39.287Z,60.53
2019-02-16T12:58:30.474Z,59.23
2019-02-16T13:01:15.014Z,59.41
2019-02-16T13:04:15.288Z,59.20
2019-02-16T13:07:02.258Z,58.94
2019-02-16T13:09:53.860Z,61.16
2019-02-16T13:12:38.924Z,61.38
2019-02-16T13:15:36.346Z,59.76
2019-02-16T13:18:14.928Z,61.20
2019-02-16T13:21:09.325Z,58.57
2019-02-16T13:23:56.357Z,59.12
2019-02-16T13:26:50.945Z,58.14
2019-02-16T13:29:54.697Z,59.24
2019-02-16T13:32:52.093Z,57.95
2019-02-16T13:35:35.389Z,58.19
2019-02-16T13:38:16.523Z,58.49
2019-02-16T13:41:03.135Z,58.86
2019-02-16T13:43:59.607Z,60.89
2019-02-16T13:46:53.707Z,61.31
2019-02-16T13:49:35.448Z,61.54
2019-02-16T13:52:16.813Z,63.15
2019-02-16T13:55:04.012Z,63.89
2019-02-16T13:57:52.384Z,64.76
2019-02-16T14:00:39.470Z,64.43
2019-02-16T14:03:27.839Z,65.17
2019-02-16T14:06:25.492Z,65.97
2019-02-16T14:09:04.952Z,64.43
2019-02-16T14:11:59.566Z,66.09
2019-02-16T14:14:47.988Z,65.15
2019-02-16T14:17:36.332Z,63.90
2019-02-16T14:20:06.380Z,66.20
2019-02-16T14:22:35.960Z,64.01
2019-02-16T14:25:07.624Z,64.77
2019-02-16T14:27:37.284Z,65.07
2019-02-16T14:30:07.862Z,65.31
2019-02-16T14:32:37.542Z,65.82
2019-02-16T14:35:07.429Z,66.41
2019-02-16T14:37:50.717Z,68.43
2019-02-16T14:40:20.696Z,66.85
2019-02-16T14:42:50.262Z,66.78
2019-02-16T14:45:19.794Z,69.64
2019-02-16T14:47:49.341Z,67.27
2019-02-16T14:50:18.890Z,67.42
2019-02-16T14:52:48.706Z,67.03
2019-02-16T14:55:18.321Z,67.81
2019-02-16T14:57:47.937Z,68.08
2019-02-16T15:00:17.516Z,68.22
2019-02-16T15:02:47.098Z,68.82
2019-02-16T15:05:16.662Z,69.59
2019-02-16T15:07:46.298Z,69.26
2019-02-16T15:10:16.171Z,69.93
2019-02-16T15:12:45.792Z,70.62
2019-02-16T15:15:15.397Z,70.12
2019-02-16T15:17:44.932Z,70.29
2019-02-16T15:20:14.667Z,71.03
2019-02-16T15:22:44.318Z,70.92
2019-02-16T15:25:13.975Z,71.04
2019-02-16T15:27:46.207Z,71.69
2019-02-16T15:30:17.034Z,71.89
2019-02-16T15:32:46.588Z,72.39
2019-02-16T15:35:16.356Z,72.64
2019-02-16T15:37:45.887Z,72.65
2019-02-16T15:40:15.467Z,73.23
2019-02-16T15:42:45.122Z,73.46
2019-02-16T15:45:14.916Z,74.93
2019-02-16T15:47:44.462Z,75.11
2019-02-16T15:50:14.644Z,76.04
2019-02-16T15:52:44.253Z,77.48
2019-02-16T15:55:13.955Z,79.12
2019-02-16T15:57:43.609Z,80.18
2019-02-16T16:00:21.193Z,81.17
2019-02-16T16:02:50.794Z,81.75
2019-02-16T16:05:20.318Z,82.80
2019-02-16T16:08:17.941Z,83.03
2019-02-16T16:11:05.115Z,84.02
2019-02-16T16:13:52.786Z,84.85
2019-02-16T16:16:50.049Z,86.67
2019-02-16T16:19:32.557Z,87.04
2019-02-16T16:22:23.830Z,88.66
2019-02-16T16:25:10.886Z,88.95
2019-02-16T16:27:47.191Z,89.23
2019-02-16T16:30:31.414Z,90.25
2019-02-16T16:33:29.441Z,90.84
2019-02-16T16:36:15.241Z,91.48
2019-02-16T16:38:55.178Z,91.74
2019-02-16T16:41:55.808Z,92.00
2019-02-16T16:44:44.165Z,91.85
2019-02-16T16:47:26.821Z,92.14
2019-02-16T16:50:18.827Z,93.60
2019-02-16T16:53:15.766Z,93.83
2019-02-16T16:55:53.567Z,93.34
2019-02-16T16:58:42.058Z,93.00
2019-02-16T17:01:36.526Z,94.08
2019-02-16T17:04:22.115Z,94.73
2019-02-16T17:07:22.512Z,94.35
2019-02-16T17:10:09.472Z,95.20
2019-02-16T17:12:56.496Z,95.61
2019-02-16T17:15:41.378Z,95.48
2019-02-16T17:18:26.676Z,95.78
2019-02-16T17:21:08.910Z,95.77
2019-02-16T17:24:00.072Z,96.47
2019-02-16T17:26:39.897Z,96.76
2019-02-16T17:29:31.431Z,96.98
2019-02-16T17:32:25.739Z,97.27
2019-02-16T17:35:05.706Z,98.02
2019-02-16T17:37:47.101Z,98.45
2019-02-16T17:40:30.519Z,98.45
2019-02-16T17:43:17.653Z,98.47
2019-02-16T17:46:21.355Z,98.39
2019-02-16T17:49:08.584Z,98.27
2019-02-16T17:52:15.204Z,98.49
2019-02-16T17:55:03.632Z,98.77
2019-02-16T17:57:54.968Z,99.24
2019-02-16T18:00:42.368Z,100.00
2019-02-16T18:03:34.195Z,100.00
2019-02-16T18:06:19.597Z,99.73
2019-02-16T18:09:13.582Z,99.87
2019-02-16T18:11:51.412Z,99.84
2019-02-16T18:14:39.674Z,100.00
2019-02-16T18:17:34.238Z,100.00
2019-02-16T18:20:27.914Z,100.00
2019-02-16T18:23:08.310Z,100.00
2019-02-16T18:26:02.704Z,100.00
2019-02-16T18:28:57.212Z,100.00
2019-02-16T18:31:44.342Z,100.00
2019-02-16T18:34:27.113Z,100.00
2019-02-16T18:37:15.489Z,100.00
2019-02-16T18:40:13.221Z,100.00
2019-02-16T18:43:04.577Z,100.00
2019-02-16T18:45:50.794Z,100.00
2019-02-16T18:48:39.236Z,100.00
2019-02-16T18:51:33.387Z,100.00
2019-02-16T18:54:18.185Z,100.00
2019-02-16T18:57:12.553Z,100.00
2019-02-16T19:00:04.526Z,100.00
2019-02-16T19:03:02.201Z,100.00
2019-02-16T19:05:59.643Z,99.51
2019-02-16T19:08:48.957Z,99.69
2019-02-16T19:11:46.443Z,99.45
2019-02-16T19:14:34.922Z,99.33
2019-02-16T19:17:23.381Z,99.89
2019-02-16T19:20:14.880Z,99.72
2019-02-16T19:22:59.361Z,99.36
2019-02-16T19:25:33.791Z,98.14
2019-02-16T19:28:18.385Z,97.59
2019-02-16T19:31:05.782Z,96.94
2019-02-16T19:33:57.250Z,96.00
2019-02-16T19:36:45.649Z,95.23
2019-02-16T19:39:40.094Z,94.49
2019-02-16T19:42:27.160Z,93.94
2019-02-16T19:45:21.382Z,92.80
2019-02-16T19:48:08.429Z,91.93
2019-02-16T19:50:47.246Z,92.11
2019-02-16T19:53:35.610Z,91.91
2019-02-16T19:56:24.068Z,91.34
2019-02-16T19:59:11.162Z,90.91
2019-02-16T20:02:08.673Z,91.19
2019-02-16T20:04:56.280Z,91.48
2019-02-16T20:07:47.473Z,91.34
2019-02-16T20:10:29.404Z,91.14
2019-02-16T20:13:15.765Z,91.48
2019-02-16T20:16:00.868Z,91.40
2019-02-16T20:18:43.201Z,90.99
2019-02-16T20:21:30.235Z,91.23
2019-02-16T20:24:17.620Z,91.85
2019-02-16T20:27:09.300Z,91.67
2019-02-16T20:30:00.968Z,91.23
2019-02-16T20:32:55.407Z,90.93
2019-02-16T20:35:34.489Z,90.79
2019-02-16T20:38:25.957Z,91.25
2019-02-16T20:41:15.500Z,91.11
2019-02-16T20:44:06.958Z,91.29
2019-02-16T20:46:59.957Z,91.25
2019-02-16T20:49:40.440Z,91.35
2019-02-16T20:52:31.857Z,91.46
2019-02-16T20:55:18.635Z,91.76
2019-02-16T20:57:55.746Z,91.86
2019-02-16T21:00:35.758Z,91.38
2019-02-16T21:03:12.505Z,92.01
2019-02-16T21:06:19.242Z,92.09
2019-02-16T21:09:04.205Z,91.94
2019-02-16T21:11:44.674Z,92.06
2019-02-16T21:14:42.240Z,91.23
2019-02-16T21:17:29.654Z,90.80
2019-02-16T21:20:24.089Z,89.76
2019-02-16T21:23:27.261Z,89.21
2019-02-16T21:26:09.495Z,88.29
2019-02-16T21:29:08.359Z,88.37
2019-02-16T21:32:06.073Z,87.52
2019-02-16T21:34:56.465Z,88.07
2019-02-16T21:37:54.233Z,88.20
2019-02-16T21:40:44.977Z,89.18
2019-02-16T21:43:33.728Z,88.87
2019-02-16T21:46:21.003Z,89.67
2019-02-16T21:49:15.548Z,89.83
2019-02-16T21:52:03.940Z,90.51
2019-02-16T21:54:44.916Z,91.03
2019-02-16T21:57:31.855Z,93.80
2019-02-16T22:00:20.242Z,94.93
2019-02-16T22:03:10.485Z,96.30
2019-02-16T22:05:54.606Z,98.32
2019-02-16T22:08:40.046Z,99.91
2019-02-16T22:11:43.708Z,100.00
2019-02-16T22:14:13.484Z,100.00
2019-02-16T22:16:43.196Z,100.00
2019-02-16T22:19:12.895Z,100.00
2019-02-16T22:21:42.606Z,100.00
2019-02-16T22:24:12.410Z,100.00
2019-02-16T22:26:41.976Z,100.00
2019-02-16T22:29:11.556Z,100.00
2019-02-16T22:31:41.342Z,100.00
2019-02-16T22:34:10.976Z,100.00
2019-02-16T22:36:40.689Z,100.00
2019-02-16T22:39:10.385Z,100.00
2019-02-16T22:41:40.087Z,100.00
2019-02-16T22:44:09.814Z,100.00
2019-02-16T22:46:39.509Z,100.00
2019-02-16T22:49:09.178Z,100.00
2019-02-16T22:51:38.893Z,100.00
2019-02-16T22:54:08.534Z,100.00
2019-02-16T22:56:38.196Z,100.00
2019-02-16T22:59:07.761Z,100.00
2019-02-16T23:01:37.436Z,100.00
2019-02-16T23:04:07.176Z,100.00
2019-02-16T23:06:36.901Z,100.00
2019-02-16T23:09:12.005Z,100.00
2019-02-16T23:11:41.683Z,100.00
2019-02-16T23:14:11.326Z,100.00
2019-02-16T23:16:41.012Z,100.00
2019-02-16T23:19:10.584Z,100.00
2019-02-16T23:21:40.274Z,100.00
2019-02-16T23:24:09.858Z,100.00
2019-02-16T23:26:39.426Z,100.00
2019-02-16T23:29:09.069Z,100.00
2019-02-16T23:31:38.812Z,100.00
2019-02-16T23:34:08.445Z,100.00
2019-02-16T23:36:38.010Z,100.00
2019-02-16T23:39:08.322Z,100.00
2019-02-16T23:41:37.887Z,100.00
2019-02-16T23:44:07.440Z,100.00
2019-02-16T23:46:37.046Z,100.00
2019-02-16T23:49:06.606Z,100.00
2019-02-16T23:51:36.159Z,100.00
2019-02-16T23:54:05.878Z,100.00
2019-02-16T23:56:35.471Z,100.00
2019-02-16T23:59:05.139Z,100.00
